sensor_id;sensor_type;location;lat;lon;timestamp;temperature;humidity
37844;DHT22;63793;57.632;18.292;2023-05-07T00:01:45;2.40;99.90
37844;DHT22;63793;57.632;18.292;2023-05-07T00:04:12;2.50;99.90
37844;DHT22;63793;57.632;18.292;2023-05-07T00:06:40;2.40;99.90
37844;DHT22;63793;57.632;18.292;2023-05-07T00:09:07;2.40;99.90
37844;DHT22;63793;57.632;18.292;2023-05-07T00:11:33;2.30;99.90
37844;DHT22;63793;57.632;18.292;2023-05-07T00:14:03;2.30;99.90
37844;DHT22;63793;57.632;18.292;2023-05-07T00:16:29;2.30;99.90
37844;DHT22;63793;57.632;18.292;2023-05-07T00:18:56;2.30;99.90
37844;DHT22;63793;57.632;18.292;2023-05-07T00:21:23;2.30;99.90
37844;DHT22;63793;57.632;18.292;2023-05-07T00:23:54;2.20;99.90
37844;DHT22;63793;57.632;18.292;2023-05-07T00:26:21;2.20;99.90
37844;DHT22;63793;57.632;18.292;2023-05-07T00:28:50;2.20;99.90
37844;DHT22;63793;57.632;18.292;2023-05-07T00:31:17;2.20;99.90
37844;DHT22;63793;57.632;18.292;2023-05-07T00:33:44;2.20;99.90
37844;DHT22;63793;57.632;18.292;2023-05-07T00:36:10;2.20;99.90
37844;DHT22;63793;57.632;18.292;2023-05-07T00:38:37;2.20;99.90
37844;DHT22;63793;57.632;18.292;2023-05-07T00:41:04;2.10;99.90
37844;DHT22;63793;57.632;18.292;2023-05-07T00:43:31;2.10;99.90
37844;DHT22;63793;57.632;18.292;2023-05-07T00:45:58;2.10;99.90
37844;DHT22;63793;57.632;18.292;2023-05-07T00:48:26;2.10;99.90
37844;DHT22;63793;57.632;18.292;2023-05-07T00:50:53;2.10;99.90
37844;DHT22;63793;57.632;18.292;2023-05-07T00:53:20;2.10;99.90
37844;DHT22;63793;57.632;18.292;2023-05-07T00:55:48;2.10;99.90
37844;DHT22;63793;57.632;18.292;2023-05-07T00:58:15;2.10;99.90
37844;DHT22;63793;57.632;18.292;2023-05-07T01:00:42;2.10;99.90
37844;DHT22;63793;57.632;18.292;2023-05-07T01:03:09;2.10;99.90
37844;DHT22;63793;57.632;18.292;2023-05-07T01:05:36;2.00;99.90
37844;DHT22;63793;57.632;18.292;2023-05-07T01:08:04;2.00;99.90
37844;DHT22;63793;57.632;18.292;2023-05-07T01:10:32;2.00;99.90
37844;DHT22;63793;57.632;18.292;2023-05-07T01:12:58;2.00;99.90
37844;DHT22;63793;57.632;18.292;2023-05-07T01:15:27;1.90;99.90
37844;DHT22;63793;57.632;18.292;2023-05-07T01:17:55;1.90;99.90
37844;DHT22;63793;57.632;18.292;2023-05-07T01:20:30;1.90;99.90
37844;DHT22;63793;57.632;18.292;2023-05-07T01:22:57;1.90;99.90
37844;DHT22;63793;57.632;18.292;2023-05-07T01:25:24;1.90;99.90
37844;DHT22;63793;57.632;18.292;2023-05-07T01:27:55;1.90;99.90
37844;DHT22;63793;57.632;18.292;2023-05-07T01:30:27;1.80;99.90
37844;DHT22;63793;57.632;18.292;2023-05-07T01:35:34;1.80;99.90
37844;DHT22;63793;57.632;18.292;2023-05-07T01:38:03;1.80;99.90
37844;DHT22;63793;57.632;18.292;2023-05-07T01:40:31;1.80;99.90
37844;DHT22;63793;57.632;18.292;2023-05-07T01:42:58;1.80;99.90
37844;DHT22;63793;57.632;18.292;2023-05-07T01:45:25;1.80;99.90
37844;DHT22;63793;57.632;18.292;2023-05-07T01:47:53;1.80;99.90
37844;DHT22;63793;57.632;18.292;2023-05-07T01:50:20;1.80;99.90
37844;DHT22;63793;57.632;18.292;2023-05-07T01:52:50;1.70;99.90
37844;DHT22;63793;57.632;18.292;2023-05-07T01:55:17;1.70;99.90
37844;DHT22;63793;57.632;18.292;2023-05-07T01:57:44;1.70;99.90
37844;DHT22;63793;57.632;18.292;2023-05-07T02:00:12;1.70;99.90
37844;DHT22;63793;57.632;18.292;2023-05-07T02:02:42;1.70;99.90
37844;DHT22;63793;57.632;18.292;2023-05-07T02:05:20;1.70;99.90
37844;DHT22;63793;57.632;18.292;2023-05-07T02:07:54;1.60;99.90
37844;DHT22;63793;57.632;18.292;2023-05-07T02:10:21;1.70;99.90
37844;DHT22;63793;57.632;18.292;2023-05-07T02:12:48;1.70;99.90
37844;DHT22;63793;57.632;18.292;2023-05-07T02:15:15;1.60;99.90
37844;DHT22;63793;57.632;18.292;2023-05-07T02:18:03;1.60;99.90
37844;DHT22;63793;57.632;18.292;2023-05-07T02:20:30;1.60;99.90
37844;DHT22;63793;57.632;18.292;2023-05-07T02:22:57;1.60;99.90
37844;DHT22;63793;57.632;18.292;2023-05-07T02:25:26;1.50;99.90
37844;DHT22;63793;57.632;18.292;2023-05-07T02:27:53;1.50;99.90
37844;DHT22;63793;57.632;18.292;2023-05-07T02:30:25;1.50;99.90
37844;DHT22;63793;57.632;18.292;2023-05-07T02:32:54;1.50;99.90
37844;DHT22;63793;57.632;18.292;2023-05-07T02:35:21;1.50;99.90
37844;DHT22;63793;57.632;18.292;2023-05-07T02:37:48;1.40;99.90
37844;DHT22;63793;57.632;18.292;2023-05-07T02:40:15;1.50;99.90
37844;DHT22;63793;57.632;18.292;2023-05-07T02:42:42;1.50;99.90
37844;DHT22;63793;57.632;18.292;2023-05-07T02:45:09;1.50;99.90
37844;DHT22;63793;57.632;18.292;2023-05-07T02:47:37;1.50;99.90
37844;DHT22;63793;57.632;18.292;2023-05-07T02:50:05;1.50;99.90
37844;DHT22;63793;57.632;18.292;2023-05-07T02:52:32;1.50;99.90
37844;DHT22;63793;57.632;18.292;2023-05-07T02:54:59;1.50;99.90
37844;DHT22;63793;57.632;18.292;2023-05-07T02:57:26;1.50;99.90
37844;DHT22;63793;57.632;18.292;2023-05-07T02:59:53;1.50;99.90
37844;DHT22;63793;57.632;18.292;2023-05-07T03:02:21;1.50;99.90
37844;DHT22;63793;57.632;18.292;2023-05-07T03:04:48;1.50;99.90
37844;DHT22;63793;57.632;18.292;2023-05-07T03:07:14;1.60;99.90
37844;DHT22;63793;57.632;18.292;2023-05-07T03:09:41;1.60;99.90
37844;DHT22;63793;57.632;18.292;2023-05-07T03:12:08;1.60;99.90
37844;DHT22;63793;57.632;18.292;2023-05-07T03:14:35;1.60;99.90
37844;DHT22;63793;57.632;18.292;2023-05-07T03:17:02;1.60;99.90
37844;DHT22;63793;57.632;18.292;2023-05-07T03:19:29;1.60;99.90
37844;DHT22;63793;57.632;18.292;2023-05-07T03:21:57;1.60;99.90
37844;DHT22;63793;57.632;18.292;2023-05-07T03:24:24;1.60;99.90
37844;DHT22;63793;57.632;18.292;2023-05-07T03:26:51;1.70;99.90
37844;DHT22;63793;57.632;18.292;2023-05-07T03:29:18;1.70;99.90
37844;DHT22;63793;57.632;18.292;2023-05-07T03:31:46;1.70;99.90
37844;DHT22;63793;57.632;18.292;2023-05-07T03:34:13;1.80;99.90
37844;DHT22;63793;57.632;18.292;2023-05-07T03:36:40;1.80;99.90
37844;DHT22;63793;57.632;18.292;2023-05-07T03:39:10;1.80;99.90
37844;DHT22;63793;57.632;18.292;2023-05-07T03:41:39;1.90;99.90
37844;DHT22;63793;57.632;18.292;2023-05-07T03:44:06;1.90;99.90
37844;DHT22;63793;57.632;18.292;2023-05-07T03:46:33;2.00;99.90
37844;DHT22;63793;57.632;18.292;2023-05-07T03:49:01;2.00;99.90
37844;DHT22;63793;57.632;18.292;2023-05-07T03:51:28;2.00;99.90
37844;DHT22;63793;57.632;18.292;2023-05-07T03:53:55;2.10;99.90
37844;DHT22;63793;57.632;18.292;2023-05-07T03:56:24;2.10;99.90
37844;DHT22;63793;57.632;18.292;2023-05-07T03:58:54;2.20;99.90
37844;DHT22;63793;57.632;18.292;2023-05-07T04:01:21;2.20;99.90
37844;DHT22;63793;57.632;18.292;2023-05-07T04:03:48;2.20;99.90
37844;DHT22;63793;57.632;18.292;2023-05-07T04:06:16;2.30;99.90
37844;DHT22;63793;57.632;18.292;2023-05-07T04:08:46;2.30;99.90
37844;DHT22;63793;57.632;18.292;2023-05-07T04:11:13;2.40;99.90
37844;DHT22;63793;57.632;18.292;2023-05-07T04:13:40;2.50;99.90
37844;DHT22;63793;57.632;18.292;2023-05-07T04:16:08;2.50;99.90
37844;DHT22;63793;57.632;18.292;2023-05-07T04:18:37;2.60;99.90
37844;DHT22;63793;57.632;18.292;2023-05-07T04:21:04;2.60;99.90
37844;DHT22;63793;57.632;18.292;2023-05-07T04:23:34;2.70;99.90
37844;DHT22;63793;57.632;18.292;2023-05-07T04:26:04;2.80;99.90
37844;DHT22;63793;57.632;18.292;2023-05-07T04:28:39;2.90;99.90
37844;DHT22;63793;57.632;18.292;2023-05-07T04:31:07;2.90;99.90
37844;DHT22;63793;57.632;18.292;2023-05-07T04:33:36;3.00;99.90
37844;DHT22;63793;57.632;18.292;2023-05-07T04:36:04;3.00;99.90
37844;DHT22;63793;57.632;18.292;2023-05-07T04:38:36;3.20;99.90
37844;DHT22;63793;57.632;18.292;2023-05-07T04:41:05;3.40;99.90
37844;DHT22;63793;57.632;18.292;2023-05-07T04:43:36;3.50;99.90
37844;DHT22;63793;57.632;18.292;2023-05-07T04:46:03;3.60;99.90
37844;DHT22;63793;57.632;18.292;2023-05-07T04:48:30;3.70;99.90
37844;DHT22;63793;57.632;18.292;2023-05-07T04:50:59;3.80;99.90
37844;DHT22;63793;57.632;18.292;2023-05-07T04:53:26;3.90;99.90
37844;DHT22;63793;57.632;18.292;2023-05-07T04:55:57;3.90;99.90
37844;DHT22;63793;57.632;18.292;2023-05-07T04:58:30;4.10;99.90
37844;DHT22;63793;57.632;18.292;2023-05-07T05:00:59;4.20;99.90
37844;DHT22;63793;57.632;18.292;2023-05-07T05:03:27;4.30;99.90
37844;DHT22;63793;57.632;18.292;2023-05-07T05:05:54;4.40;99.90
37844;DHT22;63793;57.632;18.292;2023-05-07T05:08:22;4.50;99.90
37844;DHT22;63793;57.632;18.292;2023-05-07T05:10:49;4.60;99.90
37844;DHT22;63793;57.632;18.292;2023-05-07T05:13:17;4.70;99.90
37844;DHT22;63793;57.632;18.292;2023-05-07T05:15:45;4.80;99.90
37844;DHT22;63793;57.632;18.292;2023-05-07T05:18:12;4.80;99.90
37844;DHT22;63793;57.632;18.292;2023-05-07T05:20:39;4.90;99.90
37844;DHT22;63793;57.632;18.292;2023-05-07T05:23:07;5.00;99.90
37844;DHT22;63793;57.632;18.292;2023-05-07T05:25:34;5.00;99.90
37844;DHT22;63793;57.632;18.292;2023-05-07T05:28:02;5.10;99.90
37844;DHT22;63793;57.632;18.292;2023-05-07T05:30:30;5.20;99.90
37844;DHT22;63793;57.632;18.292;2023-05-07T05:32:57;5.20;99.90
37844;DHT22;63793;57.632;18.292;2023-05-07T05:35:26;5.30;99.90
37844;DHT22;63793;57.632;18.292;2023-05-07T05:37:53;5.40;99.90
37844;DHT22;63793;57.632;18.292;2023-05-07T05:40:21;5.40;99.90
37844;DHT22;63793;57.632;18.292;2023-05-07T05:42:49;5.50;99.90
37844;DHT22;63793;57.632;18.292;2023-05-07T05:45:16;5.60;99.90
37844;DHT22;63793;57.632;18.292;2023-05-07T05:47:44;5.60;99.90
37844;DHT22;63793;57.632;18.292;2023-05-07T05:50:12;5.70;99.90
37844;DHT22;63793;57.632;18.292;2023-05-07T05:52:39;5.80;99.90
37844;DHT22;63793;57.632;18.292;2023-05-07T05:55:08;5.90;99.90
37844;DHT22;63793;57.632;18.292;2023-05-07T05:57:37;5.90;99.90
37844;DHT22;63793;57.632;18.292;2023-05-07T06:00:04;6.00;99.90
37844;DHT22;63793;57.632;18.292;2023-05-07T06:02:44;6.10;99.90
37844;DHT22;63793;57.632;18.292;2023-05-07T06:05:15;6.20;99.90
37844;DHT22;63793;57.632;18.292;2023-05-07T06:07:43;6.20;99.90
37844;DHT22;63793;57.632;18.292;2023-05-07T06:10:10;6.30;99.90
37844;DHT22;63793;57.632;18.292;2023-05-07T06:12:39;6.40;99.90
37844;DHT22;63793;57.632;18.292;2023-05-07T06:15:07;6.50;99.90
37844;DHT22;63793;57.632;18.292;2023-05-07T06:17:34;6.60;99.90
37844;DHT22;63793;57.632;18.292;2023-05-07T06:20:01;6.70;99.90
37844;DHT22;63793;57.632;18.292;2023-05-07T06:22:28;6.80;99.90
37844;DHT22;63793;57.632;18.292;2023-05-07T06:24:55;6.90;99.90
37844;DHT22;63793;57.632;18.292;2023-05-07T06:27:22;6.90;99.90
37844;DHT22;63793;57.632;18.292;2023-05-07T06:29:49;7.00;99.90
37844;DHT22;63793;57.632;18.292;2023-05-07T06:32:17;7.10;99.90
37844;DHT22;63793;57.632;18.292;2023-05-07T06:34:45;7.20;99.90
37844;DHT22;63793;57.632;18.292;2023-05-07T06:37:13;7.20;99.90
37844;DHT22;63793;57.632;18.292;2023-05-07T06:40:00;7.30;99.90
37844;DHT22;63793;57.632;18.292;2023-05-07T06:42:29;7.40;99.90
37844;DHT22;63793;57.632;18.292;2023-05-07T06:45:00;7.40;99.90
37844;DHT22;63793;57.632;18.292;2023-05-07T06:47:29;7.50;99.90
37844;DHT22;63793;57.632;18.292;2023-05-07T06:49:56;7.60;99.90
37844;DHT22;63793;57.632;18.292;2023-05-07T06:52:27;7.70;99.90
37844;DHT22;63793;57.632;18.292;2023-05-07T06:54:54;7.80;99.90
37844;DHT22;63793;57.632;18.292;2023-05-07T06:57:23;7.80;99.90
37844;DHT22;63793;57.632;18.292;2023-05-07T06:59:51;8.00;99.90
37844;DHT22;63793;57.632;18.292;2023-05-07T07:02:19;8.00;99.90
37844;DHT22;63793;57.632;18.292;2023-05-07T07:04:48;8.10;99.90
37844;DHT22;63793;57.632;18.292;2023-05-07T07:07:15;8.20;99.90
37844;DHT22;63793;57.632;18.292;2023-05-07T07:09:45;8.30;99.90
37844;DHT22;63793;57.632;18.292;2023-05-07T07:12:14;8.40;99.90
37844;DHT22;63793;57.632;18.292;2023-05-07T07:14:42;8.50;99.90
37844;DHT22;63793;57.632;18.292;2023-05-07T07:17:09;8.60;99.90
37844;DHT22;63793;57.632;18.292;2023-05-07T07:19:36;8.60;99.90
37844;DHT22;63793;57.632;18.292;2023-05-07T07:22:03;8.70;99.90
37844;DHT22;63793;57.632;18.292;2023-05-07T07:24:31;8.70;99.90
37844;DHT22;63793;57.632;18.292;2023-05-07T07:27:01;8.70;99.90
37844;DHT22;63793;57.632;18.292;2023-05-07T07:29:30;8.80;99.90
37844;DHT22;63793;57.632;18.292;2023-05-07T07:31:57;8.90;99.90
37844;DHT22;63793;57.632;18.292;2023-05-07T07:34:24;8.90;99.90
37844;DHT22;63793;57.632;18.292;2023-05-07T07:36:51;9.00;98.70
37844;DHT22;63793;57.632;18.292;2023-05-07T07:39:18;9.10;99.90
37844;DHT22;63793;57.632;18.292;2023-05-07T07:41:48;9.30;98.30
37844;DHT22;63793;57.632;18.292;2023-05-07T07:44:17;9.30;97.40
37844;DHT22;63793;57.632;18.292;2023-05-07T07:46:48;9.30;96.90
37844;DHT22;63793;57.632;18.292;2023-05-07T07:49:16;9.40;95.90
37844;DHT22;63793;57.632;18.292;2023-05-07T07:51:44;9.50;95.50
37844;DHT22;63793;57.632;18.292;2023-05-07T07:54:12;9.60;94.50
37844;DHT22;63793;57.632;18.292;2023-05-07T07:56:39;9.80;95.70
37844;DHT22;63793;57.632;18.292;2023-05-07T07:59:08;9.90;95.40
37844;DHT22;63793;57.632;18.292;2023-05-07T08:01:37;9.90;93.20
37844;DHT22;63793;57.632;18.292;2023-05-07T08:04:05;9.90;93.20
37844;DHT22;63793;57.632;18.292;2023-05-07T08:06:36;9.80;93.20
37844;DHT22;63793;57.632;18.292;2023-05-07T08:09:04;9.90;92.90
37844;DHT22;63793;57.632;18.292;2023-05-07T08:11:32;10.00;93.50
37844;DHT22;63793;57.632;18.292;2023-05-07T08:13:59;10.00;94.50
37844;DHT22;63793;57.632;18.292;2023-05-07T08:16:26;9.90;93.40
37844;DHT22;63793;57.632;18.292;2023-05-07T08:18:57;10.00;93.70
37844;DHT22;63793;57.632;18.292;2023-05-07T08:21:24;10.00;91.50
37844;DHT22;63793;57.632;18.292;2023-05-07T08:23:51;10.00;93.10
37844;DHT22;63793;57.632;18.292;2023-05-07T08:26:18;10.10;93.40
37844;DHT22;63793;57.632;18.292;2023-05-07T08:28:46;10.10;93.60
37844;DHT22;63793;57.632;18.292;2023-05-07T08:31:12;10.10;93.30
37844;DHT22;63793;57.632;18.292;2023-05-07T08:33:43;9.90;93.30
37844;DHT22;63793;57.632;18.292;2023-05-07T08:36:09;9.80;93.80
37844;DHT22;63793;57.632;18.292;2023-05-07T08:38:37;9.70;94.00
37844;DHT22;63793;57.632;18.292;2023-05-07T08:41:04;9.60;94.60
37844;DHT22;63793;57.632;18.292;2023-05-07T08:43:36;9.60;94.60
37844;DHT22;63793;57.632;18.292;2023-05-07T08:46:04;9.70;95.00
37844;DHT22;63793;57.632;18.292;2023-05-07T08:48:38;9.90;94.70
37844;DHT22;63793;57.632;18.292;2023-05-07T08:51:15;9.90;94.60
37844;DHT22;63793;57.632;18.292;2023-05-07T08:53:43;9.90;95.30
37844;DHT22;63793;57.632;18.292;2023-05-07T08:56:15;9.80;96.20
37844;DHT22;63793;57.632;18.292;2023-05-07T08:58:43;9.90;95.60
37844;DHT22;63793;57.632;18.292;2023-05-07T09:01:13;9.80;96.10
37844;DHT22;63793;57.632;18.292;2023-05-07T09:03:46;9.90;95.50
37844;DHT22;63793;57.632;18.292;2023-05-07T09:06:15;9.70;96.70
37844;DHT22;63793;57.632;18.292;2023-05-07T09:08:52;9.50;97.00
37844;DHT22;63793;57.632;18.292;2023-05-07T09:11:23;9.60;97.70
37844;DHT22;63793;57.632;18.292;2023-05-07T09:13:56;9.60;97.40
37844;DHT22;63793;57.632;18.292;2023-05-07T09:16:25;9.70;98.60
37844;DHT22;63793;57.632;18.292;2023-05-07T09:18:54;9.70;99.90
37844;DHT22;63793;57.632;18.292;2023-05-07T09:21:22;9.70;99.90
37844;DHT22;63793;57.632;18.292;2023-05-07T09:23:53;9.60;99.90
37844;DHT22;63793;57.632;18.292;2023-05-07T09:26:25;9.60;99.90
37844;DHT22;63793;57.632;18.292;2023-05-07T09:28:52;9.60;99.90
37844;DHT22;63793;57.632;18.292;2023-05-07T09:31:20;9.60;99.90
37844;DHT22;63793;57.632;18.292;2023-05-07T09:33:50;9.60;98.60
37844;DHT22;63793;57.632;18.292;2023-05-07T09:36:18;9.70;97.60
37844;DHT22;63793;57.632;18.292;2023-05-07T09:38:45;9.80;98.10
37844;DHT22;63793;57.632;18.292;2023-05-07T09:41:13;9.90;98.60
37844;DHT22;63793;57.632;18.292;2023-05-07T09:43:56;9.90;99.70
37844;DHT22;63793;57.632;18.292;2023-05-07T09:46:30;9.90;98.30
37844;DHT22;63793;57.632;18.292;2023-05-07T09:49:02;9.80;98.60
37844;DHT22;63793;57.632;18.292;2023-05-07T09:51:39;9.90;97.30
37844;DHT22;63793;57.632;18.292;2023-05-07T09:54:09;9.70;97.10
37844;DHT22;63793;57.632;18.292;2023-05-07T09:56:39;9.80;96.70
37844;DHT22;63793;57.632;18.292;2023-05-07T09:59:12;9.80;97.50
37844;DHT22;63793;57.632;18.292;2023-05-07T10:01:43;9.90;97.90
37844;DHT22;63793;57.632;18.292;2023-05-07T10:04:12;9.90;98.40
37844;DHT22;63793;57.632;18.292;2023-05-07T10:06:42;10.10;98.10
37844;DHT22;63793;57.632;18.292;2023-05-07T10:09:10;10.00;97.50
37844;DHT22;63793;57.632;18.292;2023-05-07T10:11:38;10.20;97.60
37844;DHT22;63793;57.632;18.292;2023-05-07T10:14:06;10.10;97.30
37844;DHT22;63793;57.632;18.292;2023-05-07T10:16:35;10.30;97.20
37844;DHT22;63793;57.632;18.292;2023-05-07T10:19:10;10.40;97.70
37844;DHT22;63793;57.632;18.292;2023-05-07T10:21:39;10.30;98.00
37844;DHT22;63793;57.632;18.292;2023-05-07T10:24:16;10.10;97.30
37844;DHT22;63793;57.632;18.292;2023-05-07T10:26:49;10.30;97.50
37844;DHT22;63793;57.632;18.292;2023-05-07T10:29:25;10.20;97.20
37844;DHT22;63793;57.632;18.292;2023-05-07T10:32:58;10.40;96.60
37844;DHT22;63793;57.632;18.292;2023-05-07T10:35:14;10.30;95.40
37844;DHT22;63793;57.632;18.292;2023-05-07T10:37:43;10.30;96.30
37844;DHT22;63793;57.632;18.292;2023-05-07T10:40:12;10.40;97.00
37844;DHT22;63793;57.632;18.292;2023-05-07T10:42:53;10.20;96.60
37844;DHT22;63793;57.632;18.292;2023-05-07T10:45:20;10.10;96.30
37844;DHT22;63793;57.632;18.292;2023-05-07T10:51:19;10.30;95.50
37844;DHT22;63793;57.632;18.292;2023-05-07T10:56:41;10.30;97.20
37844;DHT22;63793;57.632;18.292;2023-05-07T11:02:05;10.40;96.00
37844;DHT22;63793;57.632;18.292;2023-05-07T11:05:21;10.20;96.40
37844;DHT22;63793;57.632;18.292;2023-05-07T11:08:07;10.20;96.60
37844;DHT22;63793;57.632;18.292;2023-05-07T11:10:53;10.30;96.90
37844;DHT22;63793;57.632;18.292;2023-05-07T11:13:47;10.40;96.90
37844;DHT22;63793;57.632;18.292;2023-05-07T11:16:32;10.40;96.30
37844;DHT22;63793;57.632;18.292;2023-05-07T11:19:09;10.50;96.30
37844;DHT22;63793;57.632;18.292;2023-05-07T11:21:42;10.60;96.10
37844;DHT22;63793;57.632;18.292;2023-05-07T11:24:39;10.50;97.10
37844;DHT22;63793;57.632;18.292;2023-05-07T11:27:08;10.50;97.00
37844;DHT22;63793;57.632;18.292;2023-05-07T11:29:36;10.30;96.20
37844;DHT22;63793;57.632;18.292;2023-05-07T11:32:10;10.40;96.70
37844;DHT22;63793;57.632;18.292;2023-05-07T11:34:44;10.60;96.70
37844;DHT22;63793;57.632;18.292;2023-05-07T11:37:17;10.80;97.10
37844;DHT22;63793;57.632;18.292;2023-05-07T11:40:06;10.70;96.40
37844;DHT22;63793;57.632;18.292;2023-05-07T11:42:35;10.80;96.50
37844;DHT22;63793;57.632;18.292;2023-05-07T11:45:05;11.00;97.30
37844;DHT22;63793;57.632;18.292;2023-05-07T11:47:33;10.70;97.20
37844;DHT22;63793;57.632;18.292;2023-05-07T11:50:05;10.90;97.20
37844;DHT22;63793;57.632;18.292;2023-05-07T11:52:33;11.10;96.30
37844;DHT22;63793;57.632;18.292;2023-05-07T11:55:01;10.80;96.10
37844;DHT22;63793;57.632;18.292;2023-05-07T11:57:30;10.50;95.00
37844;DHT22;63793;57.632;18.292;2023-05-07T11:59:59;10.50;97.00
37844;DHT22;63793;57.632;18.292;2023-05-07T12:02:38;10.80;96.10
37844;DHT22;63793;57.632;18.292;2023-05-07T12:05:05;11.00;96.60
37844;DHT22;63793;57.632;18.292;2023-05-07T12:07:33;11.10;95.60
37844;DHT22;63793;57.632;18.292;2023-05-07T12:10:07;10.90;95.20
37844;DHT22;63793;57.632;18.292;2023-05-07T12:12:41;11.10;95.00
37844;DHT22;63793;57.632;18.292;2023-05-07T12:15:11;11.20;93.90
37844;DHT22;63793;57.632;18.292;2023-05-07T12:17:38;11.20;95.80
37844;DHT22;63793;57.632;18.292;2023-05-07T12:20:06;11.20;94.80
37844;DHT22;63793;57.632;18.292;2023-05-07T12:22:34;11.30;95.70
37844;DHT22;63793;57.632;18.292;2023-05-07T12:25:01;11.40;97.10
37844;DHT22;63793;57.632;18.292;2023-05-07T12:27:29;11.40;97.10
37844;DHT22;63793;57.632;18.292;2023-05-07T12:29:57;10.90;95.90
37844;DHT22;63793;57.632;18.292;2023-05-07T12:32:24;10.90;95.80
37844;DHT22;63793;57.632;18.292;2023-05-07T12:34:52;10.80;97.50
37844;DHT22;63793;57.632;18.292;2023-05-07T12:37:24;10.90;97.30
37844;DHT22;63793;57.632;18.292;2023-05-07T12:40:05;11.00;97.40
37844;DHT22;63793;57.632;18.292;2023-05-07T12:42:36;11.00;98.10
37844;DHT22;63793;57.632;18.292;2023-05-07T12:45:15;10.60;96.20
37844;DHT22;63793;57.632;18.292;2023-05-07T12:47:44;10.70;98.90
37844;DHT22;63793;57.632;18.292;2023-05-07T12:50:13;10.60;99.90
37844;DHT22;63793;57.632;18.292;2023-05-07T12:52:40;10.90;99.90
37844;DHT22;63793;57.632;18.292;2023-05-07T12:55:08;11.20;99.40
37844;DHT22;63793;57.632;18.292;2023-05-07T12:57:40;11.30;97.80
37844;DHT22;63793;57.632;18.292;2023-05-07T13:00:07;11.40;95.60
37844;DHT22;63793;57.632;18.292;2023-05-07T13:02:40;11.00;95.10
37844;DHT22;63793;57.632;18.292;2023-05-07T13:05:08;10.80;98.50
37844;DHT22;63793;57.632;18.292;2023-05-07T13:07:36;11.10;99.20
37844;DHT22;63793;57.632;18.292;2023-05-07T13:10:04;11.50;97.70
37844;DHT22;63793;57.632;18.292;2023-05-07T13:12:31;11.80;96.90
37844;DHT22;63793;57.632;18.292;2023-05-07T13:14:58;11.90;93.60
37844;DHT22;63793;57.632;18.292;2023-05-07T13:17:25;11.90;93.10
37844;DHT22;63793;57.632;18.292;2023-05-07T13:19:52;11.90;94.00
37844;DHT22;63793;57.632;18.292;2023-05-07T13:22:19;11.90;91.60
37844;DHT22;63793;57.632;18.292;2023-05-07T13:24:46;11.60;91.10
37844;DHT22;63793;57.632;18.292;2023-05-07T13:27:13;11.90;90.90
37844;DHT22;63793;57.632;18.292;2023-05-07T13:29:40;12.20;90.40
37844;DHT22;63793;57.632;18.292;2023-05-07T13:32:07;12.50;90.80
37844;DHT22;63793;57.632;18.292;2023-05-07T13:34:34;12.70;90.70
37844;DHT22;63793;57.632;18.292;2023-05-07T13:37:01;12.40;90.30
37844;DHT22;63793;57.632;18.292;2023-05-07T13:39:28;12.40;92.00
37844;DHT22;63793;57.632;18.292;2023-05-07T13:41:54;12.50;90.40
37844;DHT22;63793;57.632;18.292;2023-05-07T13:44:21;12.30;92.20
37844;DHT22;63793;57.632;18.292;2023-05-07T13:46:48;12.50;92.30
37844;DHT22;63793;57.632;18.292;2023-05-07T13:49:15;12.30;92.70
37844;DHT22;63793;57.632;18.292;2023-05-07T13:51:42;11.90;90.60
37844;DHT22;63793;57.632;18.292;2023-05-07T13:54:09;12.10;91.70
37844;DHT22;63793;57.632;18.292;2023-05-07T13:56:36;12.30;87.80
37844;DHT22;63793;57.632;18.292;2023-05-07T13:59:03;12.30;88.40
37844;DHT22;63793;57.632;18.292;2023-05-07T14:01:30;12.20;88.20
37844;DHT22;63793;57.632;18.292;2023-05-07T14:03:57;12.30;81.90
37844;DHT22;63793;57.632;18.292;2023-05-07T14:06:26;12.10;82.40
37844;DHT22;63793;57.632;18.292;2023-05-07T14:08:53;12.10;80.80
37844;DHT22;63793;57.632;18.292;2023-05-07T14:11:19;12.20;81.80
37844;DHT22;63793;57.632;18.292;2023-05-07T14:13:47;12.60;79.50
37844;DHT22;63793;57.632;18.292;2023-05-07T14:16:14;12.90;79.90
37844;DHT22;63793;57.632;18.292;2023-05-07T14:18:41;13.10;79.10
37844;DHT22;63793;57.632;18.292;2023-05-07T14:21:08;13.00;76.70
37844;DHT22;63793;57.632;18.292;2023-05-07T14:23:36;13.30;76.90
37844;DHT22;63793;57.632;18.292;2023-05-07T14:26:03;13.30;75.70
37844;DHT22;63793;57.632;18.292;2023-05-07T14:28:30;13.40;76.90
37844;DHT22;63793;57.632;18.292;2023-05-07T14:30:57;13.30;74.10
37844;DHT22;63793;57.632;18.292;2023-05-07T14:33:24;13.50;74.60
37844;DHT22;63793;57.632;18.292;2023-05-07T14:35:51;13.30;75.90
37844;DHT22;63793;57.632;18.292;2023-05-07T14:38:19;13.30;75.80
37844;DHT22;63793;57.632;18.292;2023-05-07T14:40:46;13.80;76.50
37844;DHT22;63793;57.632;18.292;2023-05-07T14:43:13;13.70;74.80
37844;DHT22;63793;57.632;18.292;2023-05-07T14:45:41;13.70;73.60
37844;DHT22;63793;57.632;18.292;2023-05-07T14:48:07;13.80;74.20
37844;DHT22;63793;57.632;18.292;2023-05-07T14:50:36;14.20;72.90
37844;DHT22;63793;57.632;18.292;2023-05-07T14:53:02;14.10;72.70
37844;DHT22;63793;57.632;18.292;2023-05-07T14:55:30;13.70;73.50
37844;DHT22;63793;57.632;18.292;2023-05-07T14:58:00;13.80;72.50
37844;DHT22;63793;57.632;18.292;2023-05-07T15:00:26;14.20;69.50
37844;DHT22;63793;57.632;18.292;2023-05-07T15:02:59;14.10;70.60
37844;DHT22;63793;57.632;18.292;2023-05-07T15:05:27;13.90;68.10
37844;DHT22;63793;57.632;18.292;2023-05-07T15:07:54;14.00;69.40
37844;DHT22;63793;57.632;18.292;2023-05-07T15:10:23;14.10;69.00
37844;DHT22;63793;57.632;18.292;2023-05-07T15:12:50;14.00;67.80
37844;DHT22;63793;57.632;18.292;2023-05-07T15:15:17;14.30;67.10
37844;DHT22;63793;57.632;18.292;2023-05-07T15:17:44;14.50;66.50
37844;DHT22;63793;57.632;18.292;2023-05-07T15:20:11;14.70;65.70
37844;DHT22;63793;57.632;18.292;2023-05-07T15:22:37;14.20;65.30
37844;DHT22;63793;57.632;18.292;2023-05-07T15:25:05;14.00;65.90
37844;DHT22;63793;57.632;18.292;2023-05-07T15:27:32;14.30;64.70
37844;DHT22;63793;57.632;18.292;2023-05-07T15:29:59;13.90;65.40
37844;DHT22;63793;57.632;18.292;2023-05-07T15:32:25;13.90;64.70
37844;DHT22;63793;57.632;18.292;2023-05-07T15:34:52;14.10;63.70
37844;DHT22;63793;57.632;18.292;2023-05-07T15:37:19;14.40;64.80
37844;DHT22;63793;57.632;18.292;2023-05-07T15:39:46;14.80;63.00
37844;DHT22;63793;57.632;18.292;2023-05-07T15:42:13;15.00;63.40
37844;DHT22;63793;57.632;18.292;2023-05-07T15:44:40;14.60;63.90
37844;DHT22;63793;57.632;18.292;2023-05-07T15:47:07;14.50;64.20
37844;DHT22;63793;57.632;18.292;2023-05-07T15:49:34;14.30;63.60